Time;durP1;ratioP1;P1;durP2;ratioP2;P2;SDS_P1;SDS_P2;PMS_P1;PMS_P2;Temp;Humidity;BMP_temperature;BMP_pressure;BME280_temperature;BME280_humidity;BME280_pressure;Samples;Min_cycle;Max_cycle;Signal;HPM_P1;HPM_P2
2022/04/06 00:00:09;;;;;;;6.87;4.90;;;14.10;40.80;;;;;;5104485;28;20685;-72
2022/04/06 00:02:38;;;;;;;9.53;5.07;;;14.40;39.80;;;;;;5102907;28;20175;-72
2022/04/06 00:05:04;;;;;;;6.73;4.70;;;14.50;39.60;;;;;;5104346;28;20462;-72
2022/04/06 00:07:30;;;;;;;5.93;4.77;;;14.50;39.90;;;;;;5098185;28;20417;-73
2022/04/06 00:09:56;;;;;;;7.43;4.77;;;14.50;39.50;;;;;;5105131;28;20429;-73
2022/04/06 00:12:22;;;;;;;6.37;4.43;;;14.40;39.80;;;;;;5106388;28;20164;-73
2022/04/06 00:14:47;;;;;;;7.07;4.87;;;14.80;38.80;;;;;;5105977;28;20233;-73
2022/04/06 00:17:14;;;;;;;6.47;4.60;;;15.10;37.30;;;;;;5097854;28;20509;-73
2022/04/06 00:19:39;;;;;;;6.50;5.00;;;14.70;39.60;;;;;;5103844;28;20263;-73
2022/04/06 00:22:05;;;;;;;6.33;4.90;;;14.80;38.90;;;;;;5105405;28;20501;-73
2022/04/06 00:24:31;;;;;;;8.03;5.17;;;15.10;37.90;;;;;;5113850;28;20226;-73
2022/04/06 00:26:57;;;;;;;6.30;5.00;;;14.80;39.30;;;;;;5104063;28;20415;-73
2022/04/06 00:29:23;;;;;;;7.27;4.60;;;14.90;38.80;;;;;;5099236;28;20511;-74
2022/04/06 00:31:49;;;;;;;6.33;5.40;;;14.70;38.90;;;;;;5113342;28;20236;-73
2022/04/06 00:34:15;;;;;;;7.37;4.47;;;14.80;38.30;;;;;;5107816;28;20201;-74
2022/04/06 00:36:41;;;;;;;6.33;5.13;;;14.50;39.70;;;;;;5101963;28;20864;-73
2022/04/06 00:39:06;;;;;;;10.03;5.23;;;14.70;39.70;;;;;;5095990;28;20264;-73
2022/04/06 00:41:32;;;;;;;15.43;5.20;;;14.50;40.70;;;;;;5100059;28;20283;-73
2022/04/06 00:44:18;;;;;;;7.10;5.30;;;14.30;42.00;;;;;;5105367;28;20266;-74
2022/04/06 00:46:45;;;;;;;6.27;4.77;;;14.30;40.70;;;;;;5098800;28;20238;-73
2022/04/06 00:49:14;;;;;;;8.07;4.80;;;14.10;41.50;;;;;;5094405;28;20428;-73
2022/04/06 00:51:43;;;;;;;8.73;5.00;;;14.30;41.00;;;;;;5093638;28;20477;-73
2022/04/06 00:54:10;;;;;;;6.77;5.07;;;14.40;40.60;;;;;;5094276;28;20854;-73
2022/04/06 00:56:35;;;;;;;6.87;4.90;;;14.50;40.60;;;;;;5094531;28;20432;-74
2022/04/06 00:59:02;;;;;;;7.87;5.00;;;14.70;39.20;;;;;;5102630;28;20425;-73
2022/04/06 01:01:28;;;;;;;6.73;4.93;;;14.50;40.00;;;;;;5099617;28;20202;-73
2022/04/06 01:03:53;;;;;;;7.53;5.13;;;14.50;40.30;;;;;;5100391;28;20465;-75
2022/04/06 01:06:20;;;;;;;6.70;4.60;;;14.80;39.00;;;;;;5102306;28;20558;-73
2022/04/06 01:08:46;;;;;;;6.60;5.20;;;14.70;39.00;;;;;;5100465;28;20183;-73
2022/04/06 01:11:12;;;;;;;5.57;4.57;;;14.50;40.00;;;;;;5106145;28;20450;-74
2022/04/06 01:13:38;;;;;;;10.30;5.80;;;14.40;39.90;;;;;;5099401;28;20416;-75
2022/04/06 01:16:04;;;;;;;8.20;4.97;;;14.50;39.40;;;;;;5096349;28;20189;-73
2022/04/06 01:18:33;;;;;;;11.20;5.83;;;14.40;39.70;;;;;;5100945;28;20472;-73
2022/04/06 01:20:59;;;;;;;8.73;5.40;;;14.10;39.70;;;;;;5101835;28;20505;-73
2022/04/06 01:23:25;;;;;;;6.77;4.80;;;13.80;41.50;;;;;;5093773;28;20851;-73
2022/04/06 01:25:52;;;;;;;6.33;4.40;;;14.00;41.10;;;;;;5104585;28;20704;-73
2022/04/06 01:28:17;;;;;;;9.50;4.70;;;14.10;40.50;;;;;;5102114;28;20422;-73
2022/04/06 01:30:43;;;;;;;6.37;4.40;;;14.10;40.10;;;;;;5098073;28;20596;-73
2022/04/06 01:33:09;;;;;;;5.27;4.30;;;14.00;40.40;;;;;;5109705;28;20185;-73
2022/04/06 01:35:38;;;;;;;5.73;4.40;;;14.00;40.00;;;;;;5093378;28;20715;-74
2022/04/06 01:38:05;;;;;;;6.97;4.90;;;13.90;41.30;;;;;;5105477;28;20204;-76
2022/04/06 01:40:31;;;;;;;5.10;3.90;;;13.80;41.40;;;;;;5091506;28;20444;-73
2022/04/06 01:42:57;;;;;;;7.47;5.00;;;14.20;40.50;;;;;;5092083;28;20484;-73
2022/04/06 01:45:23;;;;;;;5.63;4.00;;;14.20;40.00;;;;;;5075307;28;20963;-73
2022/04/06 01:47:48;;;;;;;7.70;4.23;;;14.10;40.70;;;;;;5076907;28;20285;-75
2022/04/06 01:52:58;;;;;;;5.50;4.17;;;14.40;40.10;;;;;;5102344;28;20184;-71
2022/04/06 01:55:24;;;;;;;7.00;4.20;;;14.30;39.10;;;;;;5093343;28;20427;-72
2022/04/06 01:57:50;;;;;;;8.13;4.30;;;14.20;40.60;;;;;;5112252;28;20418;-71
2022/04/06 02:00:17;;;;;;;5.90;4.40;;;14.00;41.10;;;;;;5104230;28;20197;-72
2022/04/06 02:02:46;;;;;;;7.07;4.03;;;14.10;40.60;;;;;;5100047;28;20180;-72
2022/04/06 02:05:12;;;;;;;7.60;4.87;;;14.40;40.10;;;;;;5096066;28;20458;-72
2022/04/06 02:07:38;;;;;;;7.63;4.60;;;14.60;39.00;;;;;;5103064;28;20839;-72
2022/04/06 02:10:05;;;;;;;6.17;4.27;;;13.80;41.20;;;;;;5105590;28;20204;-73
2022/04/06 02:12:32;;;;;;;7.43;3.93;;;13.90;41.80;;;;;;5098967;28;20509;-73
2022/04/06 02:14:58;;;;;;;5.13;4.30;;;14.00;41.20;;;;;;5100360;28;20849;-74
2022/04/06 02:17:27;;;;;;;6.00;4.40;;;14.20;40.20;;;;;;5100432;28;20425;-73
2022/04/06 02:19:53;;;;;;;5.90;4.50;;;13.60;41.90;;;;;;5103865;28;20430;-71
2022/04/06 02:22:19;;;;;;;8.10;4.17;;;13.80;41.20;;;;;;5111626;28;20788;-71
2022/04/06 02:24:45;;;;;;;6.10;4.40;;;13.90;41.00;;;;;;5100428;28;20657;-70
2022/04/06 02:27:10;;;;;;;6.40;4.77;;;14.00;41.00;;;;;;5092585;28;20422;-70
2022/04/06 02:29:39;;;;;;;5.53;4.50;;;14.10;40.20;;;;;;5100415;28;20528;-71
2022/04/06 02:32:06;;;;;;;8.97;5.63;;;13.80;41.00;;;;;;5098215;28;20217;-71
2022/04/06 02:34:32;;;;;;;6.10;4.90;;;13.60;42.40;;;;;;5084628;28;20425;-70
2022/04/06 02:36:57;;;;;;;11.50;6.27;;;13.80;41.70;;;;;;5103922;28;21107;-73
2022/04/06 02:39:23;;;;;;;9.50;5.87;;;13.40;42.90;;;;;;5095689;28;20426;-75
2022/04/06 02:41:49;;;;;;;7.10;5.20;;;13.60;42.30;;;;;;5107598;28;20197;-73
2022/04/06 02:44:15;;;;;;;7.10;5.07;;;14.00;41.10;;;;;;5100208;28;20258;-73
2022/04/06 02:46:43;;;;;;;6.97;4.80;;;14.10;41.60;;;;;;5099567;28;20172;-73
2022/04/06 02:49:09;;;;;;;5.93;4.37;;;13.90;41.20;;;;;;5092124;28;20476;-73
2022/04/06 02:51:35;;;;;;;6.60;4.23;;;14.10;40.70;;;;;;5099750;28;20856;-74
2022/04/06 02:54:00;;;;;;;5.57;4.60;;;14.10;40.60;;;;;;5099871;28;20254;-75
2022/04/06 02:56:27;;;;;;;6.17;5.17;;;14.20;40.60;;;;;;5103915;28;20638;-73
2022/04/06 02:58:53;;;;;;;7.30;5.00;;;14.40;39.30;;;;;;5097447;28;20397;-73
2022/04/06 03:01:20;;;;;;;9.57;5.10;;;14.30;39.50;;;;;;5081522;28;20874;-73
2022/04/06 03:03:46;;;;;;;6.10;4.90;;;13.80;41.70;;;;;;5091528;28;20422;-73
2022/04/06 03:06:11;;;;;;;7.30;5.67;;;14.00;40.80;;;;;;5101881;28;20412;-73
2022/04/06 03:08:37;;;;;;;6.30;5.13;;;14.00;40.20;;;;;;5092434;28;20616;-73
2022/04/06 03:11:03;;;;;;;6.07;5.17;;;14.00;40.60;;;;;;5095995;28;20540;-75
2022/04/06 03:13:29;;;;;;;8.40;5.37;;;13.90;41.00;;;;;;5103302;28;20209;-73
2022/04/06 03:15:55;;;;;;;8.17;5.93;;;13.70;41.50;;;;;;5101399;28;20271;-73
2022/04/06 03:18:21;;;;;;;7.07;5.77;;;13.40;42.40;;;;;;5102974;28;20427;-73
2022/04/06 03:20:47;;;;;;;8.07;5.77;;;13.60;42.00;;;;;;5092599;28;20536;-73
2022/04/06 03:23:14;;;;;;;9.13;6.50;;;13.60;42.20;;;;;;5091662;28;20481;-71
2022/04/06 03:25:39;;;;;;;10.60;6.17;;;13.40;43.20;;;;;;5099631;28;20453;-71
2022/04/06 03:28:05;;;;;;;9.73;6.50;;;13.40;43.00;;;;;;5101823;28;20474;-76
2022/04/06 03:30:31;;;;;;;8.47;6.20;;;13.60;42.40;;;;;;5096217;28;20256;-73
2022/04/06 03:32:56;;;;;;;9.30;6.73;;;13.80;42.40;;;;;;5099353;28;21811;-73
2022/04/06 03:35:22;;;;;;;8.63;6.50;;;14.20;40.40;;;;;;5099594;28;20652;-73
2022/04/06 03:37:49;;;;;;;9.23;6.27;;;14.10;40.30;;;;;;5100258;28;20178;-74
2022/04/06 03:40:15;;;;;;;7.70;5.60;;;14.00;41.00;;;;;;5098142;28;20673;-73
2022/04/06 03:42:41;;;;;;;6.87;5.67;;;13.80;41.70;;;;;;5099281;28;20435;-73
2022/04/06 03:45:07;;;;;;;13.60;5.83;;;13.90;41.30;;;;;;5076999;28;20191;-74
2022/04/06 03:47:34;;;;;;;6.93;5.70;;;14.10;40.60;;;;;;5102734;28;20167;-73
2022/04/06 03:50:00;;;;;;;8.00;6.10;;;13.70;41.90;;;;;;5093770;28;21088;-74
2022/04/06 03:52:27;;;;;;;9.40;6.13;;;13.70;41.70;;;;;;5093858;28;20424;-73
2022/04/06 03:54:53;;;;;;;9.67;6.70;;;13.80;41.30;;;;;;5091308;28;20788;-73
2022/04/06 03:57:19;;;;;;;8.30;6.20;;;14.00;40.90;;;;;;5099458;28;20421;-73
2022/04/06 03:59:45;;;;;;;11.53;6.83;;;13.90;41.40;;;;;;5091640;28;20424;-73
2022/04/06 04:02:11;;;;;;;8.90;6.60;;;13.60;42.10;;;;;;5094801;28;20172;-73
2022/04/06 04:04:36;;;;;;;8.60;6.67;;;13.70;42.20;;;;;;5077364;28;20982;-73
2022/04/06 04:07:02;;;;;;;9.63;6.43;;;13.80;41.80;;;;;;5109413;28;20183;-75
2022/04/06 04:09:29;;;;;;;10.33;6.40;;;13.60;42.80;;;;;;5104805;28;20175;-73
2022/04/06 04:11:56;;;;;;;6.93;5.83;;;13.70;42.80;;;;;;5094641;28;20198;-73
2022/04/06 04:14:23;;;;;;;8.27;6.30;;;13.60;43.50;;;;;;5095964;28;20418;-73
2022/04/06 04:16:49;;;;;;;11.00;7.07;;;13.40;43.60;;;;;;5109903;28;20414;-76
2022/04/06 04:19:15;;;;;;;8.63;6.53;;;13.60;42.60;;;;;;5091509;28;20967;-75
2022/04/06 04:21:42;;;;;;;8.63;7.13;;;13.60;43.00;;;;;;5097906;28;20439;-73
2022/04/06 04:24:10;;;;;;;10.33;6.83;;;13.90;41.80;;;;;;5110460;28;20461;-73
2022/04/06 04:26:38;;;;;;;9.10;7.23;;;14.10;41.00;;;;;;5098199;28;20431;-73
2022/04/06 04:29:05;;;;;;;11.67;8.00;;;14.20;40.30;;;;;;5102490;28;20462;-73
2022/04/06 04:31:31;;;;;;;15.13;8.17;;;14.00;41.20;;;;;;5099976;28;20515;-75
2022/04/06 04:33:57;;;;;;;10.23;7.67;;;14.10;40.70;;;;;;5079679;28;20453;-76
2022/04/06 04:36:23;;;;;;;8.80;7.40;;;14.00;41.20;;;;;;5095008;28;20938;-75
2022/04/06 04:38:49;;;;;;;8.93;7.03;;;14.00;41.70;;;;;;5102197;28;20428;-74
2022/04/06 04:41:16;;;;;;;17.20;6.40;;;13.60;42.80;;;;;;5094897;28;20196;-74
2022/04/06 04:43:42;;;;;;;10.40;7.43;;;13.30;44.20;;;;;;5100060;28;20170;-75
2022/04/06 04:46:08;;;;;;;13.20;7.10;;;13.60;43.90;;;;;;5096502;28;20425;-75
2022/04/06 04:48:34;;;;;;;7.73;5.97;;;13.80;42.30;;;;;;5105583;28;20417;-74
2022/04/06 04:51:00;;;;;;;9.30;6.23;;;13.80;42.50;;;;;;5105303;28;20502;-75
2022/04/06 04:53:25;;;;;;;9.80;6.60;;;13.60;43.10;;;;;;5103836;28;20250;-75
2022/04/06 04:55:53;;;;;;;8.00;6.40;;;13.90;41.80;;;;;;5106074;28;20170;-74
2022/04/06 04:58:19;;;;;;;11.20;6.60;;;14.00;41.10;;;;;;5111336;28;20427;-75
2022/04/06 05:00:46;;;;;;;8.70;6.33;;;13.90;41.30;;;;;;5102024;28;21000;-75
2022/04/06 05:03:12;;;;;;;11.73;7.00;;;13.90;41.70;;;;;;5099907;28;20431;-75
2022/04/06 05:05:40;;;;;;;9.63;6.47;;;14.20;40.50;;;;;;5108278;28;20458;-75
2022/04/06 05:08:06;;;;;;;9.77;6.40;;;14.40;39.70;;;;;;5094293;28;20423;-75
2022/04/06 05:10:32;;;;;;;9.30;6.17;;;14.50;40.50;;;;;;5076854;28;20456;-75
2022/04/06 05:12:57;;;;;;;7.87;6.47;;;14.40;39.90;;;;;;5093594;28;20975;-76
2022/04/06 05:15:23;;;;;;;8.73;6.70;;;14.20;41.20;;;;;;5112077;28;20178;-75
2022/04/06 05:17:49;;;;;;;16.73;6.23;;;14.20;41.00;;;;;;5107611;28;20176;-75
2022/04/06 05:20:15;;;;;;;7.53;6.03;;;14.30;41.70;;;;;;5102904;28;20252;-75
2022/04/06 05:22:40;;;;;;;9.80;6.07;;;14.30;41.30;;;;;;5104818;28;20205;-75
2022/04/06 05:25:07;;;;;;;8.30;6.20;;;14.20;42.10;;;;;;5096560;28;20509;-75
2022/04/06 05:27:46;;;;;;;10.87;6.17;;;14.20;42.60;;;;;;5091371;28;20667;-73
2022/04/06 05:30:14;;;;;;;17.13;6.20;;;14.60;40.00;;;;;;5103880;28;20487;-74
2022/04/06 05:32:40;;;;;;;7.67;6.10;;;14.60;40.30;;;;;;5081357;28;20446;-73
2022/04/06 05:35:08;;;;;;;8.57;6.47;;;14.70;40.00;;;;;;5086799;28;20952;-73
2022/04/06 05:37:34;;;;;;;9.40;6.30;;;14.60;40.10;;;;;;5098474;28;20440;-75
2022/04/06 05:40:00;;;;;;;9.83;6.30;;;14.40;40.60;;;;;;5107854;28;20533;-73
2022/04/06 05:42:26;;;;;;;9.30;6.50;;;14.40;41.60;;;;;;5096099;28;20427;-73
2022/04/06 05:44:51;;;;;;;8.47;6.20;;;14.20;42.20;;;;;;5112405;28;20454;-73
2022/04/06 05:47:17;;;;;;;8.73;6.40;;;14.30;40.10;;;;;;5099700;28;20787;-73
2022/04/06 05:49:43;;;;;;;11.50;6.90;;;14.20;40.60;;;;;;5096450;28;20177;-73
2022/04/06 05:52:09;;;;;;;8.93;6.40;;;14.30;41.00;;;;;;5112338;28;20195;-72
2022/04/06 05:54:36;;;;;;;9.57;6.87;;;13.50;42.40;;;;;;5091193;28;20446;-72
2022/04/06 05:57:02;;;;;;;8.37;5.70;;;13.10;45.40;;;;;;5100908;28;20820;-72
2022/04/06 05:59:27;;;;;;;7.73;5.90;;;13.30;44.00;;;;;;5092742;28;20427;-72
2022/04/06 06:01:53;;;;;;;8.43;5.50;;;13.20;44.50;;;;;;5092639;28;20451;-72
2022/04/06 06:04:19;;;;;;;5.97;4.80;;;13.90;41.80;;;;;;5099320;28;20223;-71
2022/04/06 06:06:44;;;;;;;9.20;5.53;;;14.00;40.70;;;;;;5112005;28;20176;-72
2022/04/06 06:09:10;;;;;;;8.30;5.30;;;14.30;40.20;;;;;;5090454;28;20222;-72
2022/04/06 06:11:36;;;;;;;7.70;5.70;;;14.20;39.90;;;;;;5101165;28;20299;-72
2022/04/06 06:14:02;;;;;;;6.50;5.47;;;14.50;39.20;;;;;;5106181;28;20227;-72
2022/04/06 06:16:28;;;;;;;7.97;5.63;;;14.50;39.00;;;;;;5103497;28;20454;-73
2022/04/06 06:18:55;;;;;;;11.50;5.10;;;14.20;40.20;;;;;;5101224;28;20835;-72
2022/04/06 06:21:21;;;;;;;10.80;6.10;;;14.40;39.70;;;;;;5100361;28;20966;-72
2022/04/06 06:23:47;;;;;;;7.40;5.40;;;14.90;38.50;;;;;;5103401;28;20422;-72
2022/04/06 06:26:13;;;;;;;7.57;6.20;;;14.70;38.70;;;;;;5097125;28;20758;-72
2022/04/06 06:28:39;;;;;;;8.23;5.70;;;14.90;38.00;;;;;;5102409;28;20203;-74
2022/04/06 06:31:05;;;;;;;9.33;5.57;;;14.50;38.60;;;;;;5101779;28;20819;-73
2022/04/06 06:33:30;;;;;;;14.20;5.33;;;14.40;39.80;;;;;;5102588;28;20426;-73
2022/04/06 06:35:56;;;;;;;7.30;5.00;;;14.60;39.10;;;;;;5101457;28;20456;-73
2022/04/06 06:38:22;;;;;;;6.87;5.13;;;14.80;39.30;;;;;;5100242;28;20195;-74
2022/04/06 06:40:48;;;;;;;6.87;5.00;;;14.80;38.00;;;;;;5097035;28;20202;-73
2022/04/06 06:43:15;;;;;;;7.60;5.27;;;14.90;37.80;;;;;;5105440;28;20457;-74
2022/04/06 06:45:41;;;;;;;6.37;4.80;;;14.80;38.00;;;;;;5101083;28;20254;-73
2022/04/06 06:48:07;;;;;;;11.73;4.80;;;15.10;37.10;;;;;;5106293;28;20986;-73
2022/04/06 06:50:32;;;;;;;11.43;4.50;;;14.50;39.40;;;;;;5107557;28;20235;-73
2022/04/06 06:52:58;;;;;;;11.70;4.63;;;14.50;39.50;;;;;;5102400;28;20922;-74
2022/04/06 06:55:24;;;;;;;6.43;4.87;;;14.40;39.80;;;;;;5103824;28;20189;-72
2022/04/06 06:57:50;;;;;;;9.10;5.33;;;14.50;39.10;;;;;;5094191;28;20185;-72
2022/04/06 07:00:17;;;;;;;8.63;4.57;;;14.50;38.90;;;;;;5102468;28;20200;-72
2022/04/06 07:02:42;;;;;;;9.27;4.23;;;14.60;38.70;;;;;;5101750;28;20184;-72
2022/04/06 07:05:10;;;;;;;6.80;3.90;;;14.30;39.90;;;;;;5091813;28;20546;-73
2022/04/06 07:07:59;;;;;;;8.60;4.33;;;14.70;38.50;;;;;;5091788;28;20184;-72
2022/04/06 07:10:26;;;;;;;5.50;3.90;;;14.80;38.00;;;;;;5091256;28;20440;-73
2022/04/06 07:12:53;;;;;;;4.83;3.63;;;14.40;38.60;;;;;;5099867;28;20444;-73
2022/04/06 07:15:19;;;;;;;4.03;3.33;;;14.40;38.70;;;;;;5102822;28;20424;-72
2022/04/06 07:17:49;;;;;;;11.10;3.83;;;14.40;38.70;;;;;;5098775;28;20424;-72
2022/04/06 07:20:14;;;;;;;4.97;3.43;;;14.60;38.30;;;;;;5091208;28;20447;-72
2022/04/06 07:22:40;;;;;;;5.30;3.20;;;14.50;37.90;;;;;;5099015;28;21188;-72
2022/04/06 07:25:08;;;;;;;4.60;3.23;;;13.90;39.90;;;;;;5091254;28;20202;-72
2022/04/06 07:27:36;;;;;;;7.27;3.03;;;14.50;38.20;;;;;;5099640;28;20212;-73
2022/04/06 07:30:02;;;;;;;4.60;3.30;;;14.20;39.00;;;;;;5093233;28;20952;-72
2022/04/06 07:32:29;;;;;;;4.13;3.17;;;14.80;37.50;;;;;;5103213;28;20422;-80
2022/04/06 07:34:54;;;;;;;4.13;2.70;;;15.00;36.40;;;;;;5116158;28;20416;-81
2022/04/06 07:37:20;;;;;;;4.97;3.13;;;14.10;38.60;;;;;;5098118;28;20453;-80
2022/04/06 07:39:46;;;;;;;3.43;2.87;;;13.80;40.00;;;;;;5116672;28;20230;-80
2022/04/06 07:42:11;;;;;;;4.80;3.00;;;14.10;39.30;;;;;;5080975;28;20202;-81
2022/04/06 07:44:37;;;;;;;5.97;3.23;;;13.80;40.50;;;;;;5078682;28;20738;-80
2022/04/06 07:47:03;;;;;;;4.70;3.00;;;13.80;40.40;;;;;;5078488;28;20186;-80
2022/04/06 07:49:28;;;;;;;3.07;2.40;;;13.90;40.00;;;;;;5098105;28;20196;-80
2022/04/06 07:51:54;;;;;;;8.70;2.90;;;13.90;39.70;;;;;;5097993;28;20475;-81
2022/04/06 07:54:19;;;;;;;3.83;2.93;;;14.00;39.70;;;;;;5075310;28;20553;-75
2022/04/06 07:56:47;;;;;;;5.27;3.40;;;13.80;40.10;;;;;;5100237;28;20196;-71
2022/04/06 07:59:12;;;;;;;4.83;3.40;;;14.10;39.80;;;;;;5090920;28;20181;-73
2022/04/06 08:01:38;;;;;;;3.97;3.13;;;13.90;40.70;;;;;;5093353;28;20444;-75
2022/04/06 08:04:03;;;;;;;6.50;4.20;;;14.60;38.00;;;;;;5077016;28;20212;-72
2022/04/06 08:06:29;;;;;;;5.17;3.60;;;14.70;38.10;;;;;;5079299;28;20265;-72
2022/04/06 08:08:55;;;;;;;5.10;3.50;;;14.40;39.30;;;;;;5104513;28;20178;-75
2022/04/06 08:11:21;;;;;;;6.67;3.27;;;14.60;38.50;;;;;;5099084;28;20279;-73
2022/04/06 08:13:48;;;;;;;4.70;3.00;;;14.50;39.00;;;;;;5109012;28;20177;-73
2022/04/06 08:16:13;;;;;;;3.17;2.47;;;14.90;37.40;;;;;;5112002;28;20936;-73
2022/04/06 08:18:40;;;;;;;3.50;2.50;;;14.60;37.40;;;;;;5111652;28;20424;-72
2022/04/06 08:21:05;;;;;;;3.67;2.67;;;14.30;38.80;;;;;;5093956;28;20207;-73
2022/04/06 08:23:31;;;;;;;6.07;2.73;;;14.20;39.80;;;;;;5103858;28;20413;-74
2022/04/06 08:25:57;;;;;;;6.53;2.60;;;14.20;39.40;;;;;;5114301;28;20666;-73
2022/04/06 08:28:22;;;;;;;3.80;2.90;;;14.30;39.60;;;;;;5112046;28;20427;-75
2022/04/06 08:30:48;;;;;;;5.40;2.97;;;14.90;38.40;;;;;;5106933;28;20195;-75
2022/04/06 08:33:15;;;;;;;4.33;3.17;;;15.10;38.20;;;;;;5099098;28;20184;-73
2022/04/06 08:35:42;;;;;;;3.37;2.80;;;15.50;37.20;;;;;;5092633;28;20181;-75
2022/04/06 08:38:12;;;;;;;2.60;2.30;;;15.50;36.40;;;;;;5100755;28;20805;-72
2022/04/06 08:40:39;;;;;;;3.27;2.63;;;15.00;37.00;;;;;;5101664;28;20443;-72
2022/04/06 08:43:07;;;;;;;3.17;2.40;;;14.10;39.20;;;;;;5098247;28;20431;-75
2022/04/06 08:45:39;;;;;;;4.73;2.83;;;14.30;39.60;;;;;;5086847;28;20470;-73
2022/04/06 08:48:10;;;;;;;3.70;2.63;;;14.50;38.80;;;;;;5099418;28;20456;-74
2022/04/06 08:50:37;;;;;;;3.00;2.40;;;14.30;39.10;;;;;;5096427;28;20817;-75
2022/04/06 08:53:04;;;;;;;2.90;2.20;;;14.60;39.00;;;;;;5093192;28;20855;-73
2022/04/06 08:55:31;;;;;;;3.17;2.40;;;15.40;37.40;;;;;;5100814;28;20440;-73
2022/04/06 08:57:57;;;;;;;3.00;2.20;;;14.20;39.50;;;;;;5099353;28;20438;-72
2022/04/06 09:00:23;;;;;;;2.87;2.10;;;14.00;40.70;;;;;;5103551;28;20444;-72
2022/04/06 09:02:49;;;;;;;3.47;2.20;;;14.50;38.30;;;;;;5118074;28;20728;-72
2022/04/06 09:05:19;;;;;;;3.50;2.00;;;15.20;37.10;;;;;;5107269;28;20458;-72
2022/04/06 09:07:51;;;;;;;7.63;2.07;;;15.00;37.00;;;;;;5093158;28;20228;-72
2022/04/06 09:10:28;;;;;;;5.07;2.23;;;15.40;36.00;;;;;;5081052;28;20576;-72
2022/04/06 09:13:07;;;;;;;2.30;1.80;;;16.00;35.20;;;;;;5100850;28;20905;-76
2022/04/06 09:15:32;;;;;;;2.43;1.90;;;15.90;34.20;;;;;;5101847;28;20428;-73
2022/04/06 09:18:01;;;;;;;2.30;1.90;;;16.30;34.60;;;;;;5105786;28;20429;-74
2022/04/06 09:20:27;;;;;;;3.00;2.07;;;16.50;33.20;;;;;;5101837;28;20201;-76
2022/04/06 09:22:53;;;;;;;2.57;1.80;;;17.00;32.70;;;;;;5099826;28;20427;-73
2022/04/06 09:25:20;;;;;;;2.73;2.00;;;16.50;32.60;;;;;;5095457;28;20198;-73
2022/04/06 09:27:46;;;;;;;3.23;2.23;;;15.80;33.50;;;;;;5108765;28;20170;-72
2022/04/06 09:30:12;;;;;;;2.53;2.03;;;16.10;34.30;;;;;;5092305;28;20446;-72
2022/04/06 09:32:41;;;;;;;3.20;2.40;;;16.00;33.70;;;;;;5093304;28;20425;-73
2022/04/06 09:35:25;;;;;;;3.10;2.20;;;16.00;34.50;;;;;;5090827;28;20440;-73
2022/04/06 09:38:07;;;;;;;3.00;2.13;;;16.30;33.00;;;;;;5094618;28;20417;-73
2022/04/06 09:40:33;;;;;;;10.03;2.20;;;16.70;32.30;;;;;;5097751;28;20497;-73
2022/04/06 09:42:58;;;;;;;3.57;2.20;;;16.40;33.10;;;;;;5099612;28;20426;-72
2022/04/06 09:48:12;;;;;;;2.63;2.03;;;16.30;34.30;;;;;;5101876;28;20259;-73
2022/04/06 09:50:38;;;;;;;4.07;2.80;;;16.40;33.00;;;;;;5105660;28;20538;-73
2022/04/06 09:53:05;;;;;;;3.80;2.80;;;16.40;33.20;;;;;;5093510;28;20265;-73
2022/04/06 09:55:31;;;;;;;4.40;2.47;;;16.60;32.60;;;;;;5094113;28;20421;-74
2022/04/06 09:57:59;;;;;;;3.53;2.73;;;17.00;30.10;;;;;;5093999;28;20426;-73
2022/04/06 10:00:26;;;;;;;5.83;2.30;;;17.10;30.30;;;;;;5093236;28;20487;-72
2022/04/06 10:03:14;;;;;;;4.40;3.17;;;16.90;30.60;;;;;;5094515;28;20791;-72
2022/04/06 10:05:42;;;;;;;4.43;2.13;;;16.80;31.30;;;;;;5103633;28;20534;-73
2022/04/06 10:08:09;;;;;;;2.30;1.90;;;15.70;33.90;;;;;;5091621;28;20423;-74
2022/04/06 10:10:38;;;;;;;2.63;2.10;;;15.40;34.50;;;;;;5096662;28;20460;-73
2022/04/06 10:13:04;;;;;;;8.80;2.20;;;15.50;34.70;;;;;;5093402;28;20428;-74
2022/04/06 10:15:31;;;;;;;2.70;2.10;;;15.10;35.10;;;;;;5093401;28;20425;-72
2022/04/06 10:17:57;;;;;;;3.03;2.00;;;15.60;34.60;;;;;;5092623;28;20498;-73
2022/04/06 10:20:36;;;;;;;2.60;2.20;;;16.30;31.50;;;;;;5093599;28;20452;-74
2022/04/06 10:23:31;;;;;;;5.20;2.00;;;16.40;32.00;;;;;;5101985;28;20296;-73
2022/04/06 10:26:07;;;;;;;2.40;1.90;;;16.50;31.60;;;;;;5107414;28;20868;-73
2022/04/06 10:28:38;;;;;;;3.23;2.27;;;16.70;30.80;;;;;;5112193;22;20439;-74
2022/04/06 10:31:12;;;;;;;2.17;1.80;;;17.00;30.00;;;;;;5093668;28;20501;-72
2022/04/06 10:33:39;;;;;;;3.17;2.20;;;16.00;32.50;;;;;;5088719;28;20421;-73
2022/04/06 10:36:19;;;;;;;3.40;1.90;;;16.20;31.40;;;;;;5097250;28;20486;-72
2022/04/06 10:39:04;;;;;;;2.53;2.17;;;16.00;30.70;;;;;;5089545;28;20433;-73
2022/04/06 10:41:30;;;;;;;2.83;2.23;;;15.70;32.90;;;;;;5087581;28;20421;-72
2022/04/06 10:43:56;;;;;;;3.27;2.00;;;16.20;31.80;;;;;;5102407;28;20419;-72
2022/04/06 10:46:38;;;;;;;2.87;2.07;;;16.90;29.80;;;;;;5093262;28;20423;-72
2022/04/06 10:49:10;;;;;;;3.57;2.10;;;16.90;31.40;;;;;;5099538;28;20187;-72
2022/04/06 10:51:56;;;;;;;2.73;2.00;;;18.00;29.00;;;;;;5090750;28;20418;-72
2022/04/06 10:54:23;;;;;;;3.47;2.10;;;19.40;27.50;;;;;;5099250;28;20444;-71
2022/04/06 10:56:53;;;;;;;2.97;1.93;;;18.10;27.20;;;;;;5099708;28;20416;-71
2022/04/06 10:59:23;;;;;;;3.60;1.83;;;17.80;28.20;;;;;;5091154;28;20453;-72
2022/04/06 11:02:09;;;;;;;2.70;2.00;;;17.70;28.80;;;;;;5098176;28;20421;-71
2022/04/06 11:04:42;;;;;;;2.93;1.90;;;18.40;27.80;;;;;;5084137;28;20460;-72
2022/04/06 11:07:08;;;;;;;3.33;2.00;;;18.20;27.90;;;;;;5091958;28;20428;-71
2022/04/06 11:12:29;;;;;;;3.63;1.80;;;19.40;26.20;;;;;;5099975;28;20557;-72
2022/04/06 11:15:01;;;;;;;2.20;1.70;;;19.50;25.50;;;;;;5091518;28;20975;-72
2022/04/06 11:17:34;;;;;;;2.70;2.00;;;19.60;25.30;;;;;;5102286;28;20431;-72
2022/04/06 11:20:21;;;;;;;2.80;2.00;;;19.20;25.90;;;;;;5077205;28;20448;-73
2022/04/06 11:22:46;;;;;;;2.93;2.10;;;18.10;26.90;;;;;;5089648;28;20434;-73
2022/04/06 11:25:14;;;;;;;3.50;1.93;;;17.90;27.70;;;;;;5110559;28;20452;-72
2022/04/06 11:27:42;;;;;;;2.50;1.90;;;18.20;26.50;;;;;;5102804;28;20653;-73
2022/04/06 11:30:14;;;;;;;3.50;2.00;;;19.20;25.40;;;;;;5110601;28;20951;-72
2022/04/06 11:33:00;;;;;;;3.70;1.80;;;19.50;25.20;;;;;;5102307;28;20422;-73
2022/04/06 11:35:30;;;;;;;7.83;1.90;;;19.10;25.90;;;;;;5093831;28;20513;-72
2022/04/06 11:37:56;;;;;;;2.30;1.80;;;18.30;26.20;;;;;;5102059;28;20422;-72
2022/04/06 11:40:26;;;;;;;3.50;1.83;;;19.20;25.70;;;;;;5103367;28;20436;-72
2022/04/06 11:42:54;;;;;;;2.37;1.90;;;21.10;23.30;;;;;;5113739;28;20424;-74
2022/04/06 11:45:25;;;;;;;2.53;1.70;;;20.40;23.70;;;;;;5099352;28;20781;-72
2022/04/06 11:48:04;;;;;;;2.60;1.90;;;21.20;22.70;;;;;;5114280;28;20415;-72
2022/04/06 11:50:30;;;;;;;1.97;1.60;;;21.30;21.90;;;;;;5105911;28;20482;-75
2022/04/06 11:53:01;;;;;;;2.43;1.87;;;21.10;21.50;;;;;;5103558;28;20813;-73
2022/04/06 11:55:48;;;;;;;3.37;1.73;;;21.20;21.80;;;;;;5103026;28;20511;-72
2022/04/06 11:58:36;;;;;;;4.97;1.80;;;21.40;21.90;;;;;;5095280;28;20416;-72
2022/04/06 12:01:17;;;;;;;1.70;1.50;;;20.90;23.90;;;;;;5098259;28;20437;-74
2022/04/06 12:03:44;;;;;;;3.70;1.80;;;22.20;20.80;;;;;;5097432;28;20416;-72
2022/04/06 12:06:12;;;;;;;2.57;1.80;;;20.40;22.30;;;;;;5105384;28;20451;-72
2022/04/06 12:08:39;;;;;;;6.97;1.97;;;18.40;24.80;;;;;;5098506;28;20550;-72
2022/04/06 12:11:05;;;;;;;7.70;1.83;;;19.80;23.90;;;;;;5097621;28;20463;-72
2022/04/06 12:13:34;;;;;;;8.60;1.60;;;20.70;22.90;;;;;;5099731;28;20420;-72
2022/04/06 12:16:00;;;;;;;2.37;1.70;;;21.20;22.10;;;;;;5101300;28;20432;-73
2022/04/06 12:18:27;;;;;;;1.93;1.47;;;24.20;20.60;;;;;;5090921;28;20425;-72
2022/04/06 12:20:54;;;;;;;3.20;1.70;;;22.90;19.40;;;;;;5096363;28;20209;-72
2022/04/06 12:23:23;;;;;;;3.13;1.73;;;21.70;19.90;;;;;;5084333;28;20424;-72
2022/04/06 12:25:49;;;;;;;1.83;1.60;;;21.60;20.30;;;;;;5110065;28;20788;-72
2022/04/06 12:28:18;;;;;;;2.17;1.40;;;22.40;20.00;;;;;;5102557;28;20420;-73
2022/04/06 12:30:52;;;;;;;2.83;1.70;;;23.10;18.50;;;;;;5108658;28;20919;-73
2022/04/06 12:33:37;;;;;;;5.80;1.70;;;23.10;18.40;;;;;;5096749;28;20417;-72
2022/04/06 12:36:09;;;;;;;2.57;1.60;;;24.70;17.00;;;;;;5104801;28;20420;-72
2022/04/06 12:38:36;;;;;;;2.30;1.80;;;21.20;20.90;;;;;;5088509;28;20449;-72
2022/04/06 12:41:13;;;;;;;4.37;2.00;;;19.80;22.90;;;;;;5079119;28;21102;-73
2022/04/06 12:43:40;;;;;;;4.23;1.73;;;21.50;22.70;;;;;;5091288;28;20501;-72
2022/04/06 12:46:06;;;;;;;2.33;1.80;;;22.10;20.40;;;;;;5104196;28;20483;-73
2022/04/06 12:48:32;;;;;;;2.30;1.60;;;22.50;19.50;;;;;;5102610;28;20492;-73
2022/04/06 12:50:57;;;;;;;4.23;2.00;;;20.60;21.60;;;;;;5103603;28;20451;-73
2022/04/06 12:53:23;;;;;;;2.50;2.00;;;20.30;22.30;;;;;;5102986;28;20424;-72
2022/04/06 12:56:08;;;;;;;1.80;1.50;;;21.20;20.90;;;;;;5096264;28;20223;-76